Latest Weather Observations for Yarram Airport

IDV60801

Issued at 12:05 pm EST Saturday 30 August 2014 (issued every 30 minutes, with the page automatically refreshed every 10 minutes)

About weather observations | Map of weather stations | Latest weather observations for VIC | Other Formats
Station Details ID: 085151 Name: YARRAM AIRPORT Lat: -38.56 Lon: 146.75 Height: 17.9 m
Data from the previous 72 hours. | See also: Recent months at Yarram Airport
Date/Time
EST
Temp
°C
App
Temp
°C
Dew
Point
Rel
Hum
%
Delta-T
°C
Wind Press
QNH
hPa
Press
MSL
hPa
Rain
since 9 am
mm
Dir
 
Spd
km/h
Gust
km/h
Spd
kts
Gust
kts
30/12:00pm 15.9 11.8 8.6 62 3.7 ENE 20 32 11 17 1025.3 1025.4 0.0
30/11:30am 15.9 12.1 9.1 64 3.5 ENE 19 30 10 16 1025.9 1026.0 0.0
30/11:00am 15.4 11.2 8.4 63 3.5 NE 20 30 11 16 1026.5 1026.6 0.0
30/10:30am 15.1 10.9 9.9 71 2.7 NE 22 30 12 16 1026.9 1027.0 0.0
30/10:00am 14.5 10.3 9.7 73 2.5 NE 22 30 12 16 1027.4 1027.4 0.0
30/09:30am 14.0 10.8 10.0 77 2.1 NE 17 24 9 13 1027.8 1027.8 0.0
30/09:00am 13.0 10.6 10.2 83 1.4 NE 13 19 7 10 1027.9 1027.9 0.0
30/08:30am 11.6 9.5 9.9 89 0.9 NE 11 13 6 7 1028.0 1028.0 0.0
30/08:00am 10.0 8.2 9.4 96 0.3 ENE 9 13 5 7 1028.1 1028.1 0.0
30/07:30am 7.7 5.1 7.7 100 0.0 ENE 11 13 6 7 1028.0 1028.0 0.0
30/07:00am 6.3 3.4 6.3 100 0.0 ENE 11 13 6 7 1028.0 1028.0 0.0
30/06:30am 7.0 4.6 7.0 100 0.0 NE 9 11 5 6 1027.8 1027.8 0.0
30/06:00am 7.2 4.4 7.1 99 0.0 NE 11 13 6 7 1027.6 1027.6 0.0
30/05:30am 7.6 4.9 7.5 99 0.0 NE 11 13 6 7 1027.7 1027.7 0.0
30/05:00am 8.3 5.4 8.2 99 0.0 NE 13 17 7 9 1027.5 1027.5 0.0
30/04:30am 8.5 4.9 8.5 100 0.0 NNE 17 19 9 10 1027.4 1027.4 0.0
30/04:00am 8.4 5.2 8.4 100 0.0 NNE 15 17 8 9 1027.6 1027.6 0.0
30/03:30am 8.5 5.7 8.5 100 0.0 NNE 13 17 7 9 1027.6 1027.6 0.0
30/03:00am 8.8 6.4 8.8 100 0.0 NE 11 15 6 8 1027.8 1027.8 0.0
30/02:30am 8.6 5.8 8.6 100 0.0 NE 13 15 7 8 1028.0 1028.0 0.0
30/02:00am 8.6 5.4 8.6 100 0.0 NNE 15 17 8 9 1028.3 1028.3 0.0
30/01:30am 8.9 6.2 8.9 100 0.0 NNE 13 15 7 8 1028.4 1028.4 0.0
30/01:00am 8.4 6.3 8.4 100 0.0 NE 9 13 5 7 1028.7 1028.7 0.0
30/12:30am 6.5 4.4 6.5 100 0.0 NE 7 11 4 6 1028.8 1028.8 0.0
30/12:00am 6.1 5.2 6.1 100 0.0 NNE 0 0 0 0 1028.8 1028.8 0.0
 
Date/Time
EST
Temp
°C
App
Temp
°C
Dew
Point
Rel
Hum
%
Delta-T
°C
Wind Press
QNH
hPa
Press
MSL
hPa
Rain
since 9 am
mm
Dir
 
Spd
km/h
Gust
km/h
Spd
kts
Gust
kts
29/11:30pm 6.1 5.2 6.1 100 0.0 CALM 0 0 0 0 1029.0 1029.0 0.0
29/11:00pm 5.7 4.7 5.7 100 0.0 CALM 0 0 0 0 1029.2 1029.2 0.0
29/10:30pm 5.8 4.5 5.8 100 0.0 NNE 2 6 1 3 1029.1 1029.1 0.0
29/10:00pm 7.1 5.1 7.1 100 0.0 NE 7 9 4 5 1029.1 1029.1 0.0
29/09:30pm 8.3 6.6 8.3 100 0.0 NE 7 11 4 6 1029.1 1029.1 0.0
29/09:00pm 8.9 7.0 8.9 100 0.0 NE 9 11 5 6 1029.0 1029.0 0.0
29/08:30pm 9.7 8.0 9.7 100 0.0 NNE 9 13 5 7 1029.0 1029.0 0.0
29/08:00pm 9.6 8.2 9.6 100 0.0 NNE 7 9 4 5 1029.0 1029.0 0.0
29/07:30pm 7.6 5.6 7.3 98 0.1 NE 7 9 4 5 1028.7 1028.7 0.0
29/07:00pm 8.9 7.3 8.6 98 0.1 ENE 7 9 4 5 1028.6 1028.6 0.0
29/06:30pm 10.0 8.3 9.7 98 0.2 E 9 13 5 7 1028.6 1028.6 0.0
29/06:00pm 10.6 8.5 9.8 95 0.4 E 11 15 6 8 1028.2 1028.2 0.0
29/05:30pm 12.1 10.2 10.5 90 0.8 E 11 15 6 8 1028.1 1028.1 0.0
29/05:00pm 13.5 11.5 11.4 87 1.1 E 13 17 7 9 1028.0 1028.0 0.0
29/04:30pm 14.3 11.8 11.1 81 1.7 E 15 17 8 9 1027.9 1027.9 0.0
29/04:00pm 15.3 13.2 11.1 76 2.2 ESE 13 17 7 9 1027.8 1027.8 0.0
29/03:30pm 15.9 13.7 10.7 71 2.8 ESE 13 17 7 9 1027.7 1027.7 0.0
29/03:00pm 15.7 13.8 11.9 78 2.1 SE 13 19 7 10 1027.8 1027.8 0.0
29/02:30pm 16.0 13.7 13.1 83 1.6 SSE 17 22 9 12 1027.9 1027.9 0.0
29/02:00pm 15.9 13.5 12.5 80 1.9 SSE 17 22 9 12 1028.0 1028.0 0.0
29/01:30pm 15.9 14.0 11.9 77 2.2 SSE 13 19 7 10 1028.1 1028.1 0.0
29/01:00pm 15.6 14.0 11.6 77 2.1 S 11 20 6 11 1028.3 1028.3 0.0
29/12:30pm 15.8 14.5 11.4 75 2.4 S 9 17 5 9 1028.6 1028.6 0.0
29/12:00pm 14.8 13.2 11.4 80 1.8 SSE 11 15 6 8 1029.0 1029.0 0.0
29/11:30am 14.5 13.6 10.7 78 2.0 S 6 11 3 6 1029.3 1029.3 0.0
29/11:00am 13.9 12.7 10.3 79 1.9 SW 7 11 4 6 1029.3 1029.3 0.0
29/10:30am 13.4 12.3 10.8 84 1.4 WSW 7 9 4 5 1029.4 1029.4 0.0
29/10:00am 12.8 10.8 11.5 92 0.7 SW 13 15 7 8 1029.6 1029.6 0.0
29/09:30am 12.1 10.8 11.2 94 0.5 WSW 9 13 5 7 1029.7 1029.7 0.0
29/09:00am 10.5 10.4 9.6 94 0.4 CALM 0 0 0 0 1029.8 1029.8 0.0
29/08:30am 8.8 8.5 8.8 100 0.0 CALM 0 0 0 0 1029.6 1029.6 0.0
29/08:00am 6.3 5.5 6.3 100 0.0 CALM 0 0 0 0 1029.3 1029.3 0.0
29/07:30am 3.6 2.2 3.6 100 0.0 CALM 0 0 0 0 1028.9 1028.9 0.0
29/07:00am 1.7 0.0 1.7 100 0.0 CALM 0 0 0 0 1028.6 1028.6 0.0
29/06:30am 1.5 -0.3 1.5 100 0.0 CALM 0 0 0 0 1028.3 1028.3 0.0
29/06:00am 1.7 0.0 1.7 100 0.0 CALM 0 0 0 0 1028.1 1028.1 0.0
29/05:30am 1.7 0.0 1.7 100 0.0 CALM 0 0 0 0 1028.2 1028.2 0.0
29/05:00am 2.3 0.7 2.3 100 0.0 CALM 0 0 0 0 1028.0 1028.0 0.0
29/04:30am 2.6 1.0 2.6 100 0.0 CALM 0 0 0 0 1028.0 1028.0 0.0
29/04:00am 2.7 1.1 2.7 100 0.0 CALM 0 0 0 0 1028.0 1028.0 0.0
29/03:30am 2.9 1.4 2.9 100 0.0 CALM 0 0 0 0 1027.8 1027.8 0.0
29/03:00am 4.3 3.0 4.3 100 0.0 CALM 0 0 0 0 1027.9 1027.9 0.0
29/02:30am 4.4 3.2 4.4 100 0.0 CALM 0 0 0 0 1027.9 1027.9 0.0
29/02:00am 5.1 4.0 5.1 100 0.0 CALM 0 0 0 0 1028.0 1028.0 0.0
29/01:30am 5.4 4.4 5.4 100 0.0 CALM 0 0 0 0 1028.2 1028.2 0.0
29/01:00am 6.3 5.5 6.3 100 0.0 CALM 0 0 0 0 1028.4 1028.4 0.0
29/12:30am 4.8 3.6 4.7 99 0.0 CALM 0 0 0 0 1028.4 1028.4 0.0
29/12:00am 6.1 3.9 6.0 99 0.0 NE 7 7 4 4 1028.4 1028.4 0.0
 
Date/Time
EST
Temp
°C
App
Temp
°C
Dew
Point
Rel
Hum
%
Delta-T
°C
Wind Press
QNH
hPa
Press
MSL
hPa
Rain
since 9 am
mm
Dir
 
Spd
km/h
Gust
km/h
Spd
kts
Gust
kts
28/11:30pm 7.2 4.8 7.2 100 0.0 NE 9 11 5 6 1028.3 1028.3 0.0
28/11:00pm 6.7 4.2 6.6 99 0.0 NE 9 11 5 6 1028.6 1028.6 0.0
28/10:30pm 6.3 3.7 6.0 98 0.1 NNE 9 11 5 6 1028.8 1028.8 0.0
28/10:00pm 6.4 3.4 6.0 97 0.2 NNE 11 13 6 7 1028.8 1028.8 0.0
28/09:30pm 6.4 3.4 6.0 97 0.2 NNE 11 13 6 7 1028.9 1028.9 0.0
28/09:00pm 6.8 3.4 6.1 95 0.3 NNE 13 13 7 7 1028.8 1028.8 0.0
28/08:30pm 6.9 3.9 6.2 95 0.3 NNE 11 13 6 7 1028.8 1028.8 0.0
28/08:00pm 7.7 4.4 6.6 93 0.5 NE 13 15 7 8 1028.6 1028.6 0.0
28/07:30pm 7.7 4.6 5.7 87 0.9 NE 11 13 6 7 1028.6 1028.6 0.0
28/07:00pm 9.1 6.4 7.2 88 0.9 ENE 11 13 6 7 1028.5 1028.5 0.0
28/06:30pm 10.2 8.0 7.8 85 1.2 ENE 9 13 5 7 1028.3 1028.3 0.0
28/06:00pm 10.9 9.0 7.6 80 1.6 E 7 9 4 5 1028.0 1028.0 0.0
28/05:30pm 11.9 10.0 9.1 83 1.4 E 9 13 5 7 1027.7 1027.7 0.0
28/05:00pm 12.9 10.3 9.5 80 1.7 E 13 17 7 9 1027.4 1027.4 0.0
28/04:30pm 13.8 10.9 9.8 77 2.1 E 15 20 8 11 1027.3 1027.3 0.0
28/04:00pm 14.8 11.8 10.6 76 2.2 E 17 24 9 13 1027.2 1027.2 0.0
28/03:30pm 15.6 12.2 10.6 72 2.6 E 19 26 10 14 1026.9 1027.0 0.0
28/03:00pm 16.1 12.9 11.1 72 2.7 E 19 26 10 14 1026.9 1027.0 0.0
28/02:30pm 16.8 13.6 11.9 73 2.7 E 20 28 11 15 1026.9 1027.0 0.0
28/02:00pm 16.9 13.8 12.2 74 2.6 E 20 26 11 14 1026.9 1027.0 0.0
28/01:30pm 17.1 14.1 12.0 72 2.8 E 19 24 10 13 1027.2 1027.2 0.0
28/01:00pm 17.2 14.8 12.5 74 2.6 E 17 22 9 12 1027.5 1027.5 0.0
28/12:30pm 17.1 14.7 12.8 76 2.4 E 17 24 9 13 1027.9 1027.9 0.0
28/12:00pm 17.4 15.2 10.8 65 3.5 ENE 13 17 7 9 1028.4 1028.4 0.0
28/11:30am 17.1 15.1 10.2 64 3.7 ENE 11 17 6 9 1028.8 1028.8 0.0
28/11:00am 16.2 13.7 9.6 65 3.4 ENE 13 17 7 9 1029.1 1029.1 0.0
28/10:30am 15.5 13.7 10.7 73 2.5 ENE 11 17 6 9 1029.4 1029.4 0.0
28/10:00am 14.6 13.2 12.1 85 1.3 ENE 11 15 6 8 1029.6 1029.6 0.0
28/09:30am 12.5 11.8 12.0 97 0.3 ENE 7 11 4 6 1029.8 1029.8 0.0
28/09:00am 10.7 10.9 10.7 100 0.0 CALM 0 0 0 0 1029.9 1029.9 0.0
28/08:30am 7.7 7.2 7.7 100 0.0 CALM 0 0 0 0 1029.9 1029.9 0.0
28/08:00am 4.5 3.3 4.5 100 0.0 CALM 0 0 0 0 1029.9 1029.9 0.0
28/07:30am 1.8 -1.2 1.8 100 0.0 NNE 7 9 4 5 1029.7 1029.7 0.0
28/07:00am 0.6 -2.4 0.6 100 0.0 N 6 7 3 4 1029.6 1029.6 0.0
28/06:30am 0.4 -1.5 0.4 100 0.0 CALM 0 0 0 0 1029.5 1029.5 0.0
28/06:00am 0.8 -1.1 0.8 100 0.0 CALM 0 0 0 0 1029.3 1029.3 0.0
28/05:30am 1.1 -0.7 1.1 100 0.0 CALM 0 0 0 0 1029.0 1029.0 0.0
28/05:00am 0.9 -0.9 0.9 100 0.0 CALM 0 0 0 0 1028.9 1028.9 0.0
28/04:30am 1.1 -0.7 1.1 100 0.0 CALM 0 0 0 0 1028.9 1028.9 0.0
28/04:00am 1.1 -0.7 1.1 100 0.0 CALM 0 0 0 0 1029.0 1029.0 0.0
28/03:30am 1.2 -0.6 1.2 100 0.0 CALM 0 0 0 0 1028.9 1028.9 0.0
28/03:00am 1.3 -0.5 1.3 100 0.0 CALM 0 0 0 0 1028.8 1028.8 0.0
28/02:30am 2.0 0.3 2.0 100 0.0 CALM 0 0 0 0 1028.9 1028.9 0.0
28/02:00am 1.5 -0.3 1.5 100 0.0 CALM 0 0 0 0 1029.0 1029.0 0.0
28/01:30am 2.0 0.3 2.0 100 0.0 CALM 0 0 0 0 1029.1 1029.1 0.0
28/01:00am 2.6 1.0 2.6 100 0.0 CALM 0 0 0 0 1029.2 1029.2 0.0
28/12:30am 3.3 1.9 3.3 100 0.0 CALM 0 0 0 0 1029.3 1029.3 0.0
28/12:00am 3.4 2.0 3.4 100 0.0 CALM 0 0 0 0 1029.4 1029.4 0.0
 
Date/Time
EST
Temp
°C
App
Temp
°C
Dew
Point
Rel
Hum
%
Delta-T
°C
Wind Press
QNH
hPa
Press
MSL
hPa
Rain
since 9 am
mm
Dir
 
Spd
km/h
Gust
km/h
Spd
kts
Gust
kts
27/11:30pm 4.7 2.2 4.7 100 0.0 SW 7 9 4 5 1029.5 1029.5 0.0
27/11:00pm 3.4 2.0 3.3 99 0.0 CALM 0 0 0 0 1029.4 1029.4 0.0
27/10:30pm 5.9 3.6 5.9 100 0.0 NNE 7 11 4 6 1029.2 1029.2 0.0
27/10:00pm 6.9 4.1 6.9 100 0.0 NE 11 13 6 7 1029.3 1029.3 0.0
27/09:30pm 5.3 2.1 5.2 99 0.0 NNE 11 13 6 7 1029.2 1029.2 0.0
27/09:00pm 5.2 1.9 4.5 95 0.3 NE 11 13 6 7 1029.1 1029.1 0.0
27/08:30pm 8.0 5.6 7.1 94 0.4 NNE 9 11 5 6 1029.2 1029.2 0.0
27/08:00pm 8.2 5.6 7.6 96 0.3 NNE 11 11 6 6 1028.9 1028.9 0.0
27/07:30pm 8.6 5.9 7.4 92 0.6 NNE 11 13 6 7 1028.8 1028.8 0.0
27/07:00pm 10.5 8.2 8.9 90 0.8 NE 11 15 6 8 1028.5 1028.5 0.0
27/06:30pm 10.5 7.3 8.6 88 0.9 NE 15 17 8 9 1028.4 1028.4 0.0
27/06:00pm 11.2 8.2 7.7 79 1.7 NE 13 15 7 8 1028.2 1028.2 0.0
27/05:30pm 12.7 9.6 9.0 78 1.9 ENE 15 19 8 10 1027.9 1027.9 0.0
27/05:00pm 14.2 10.6 8.4 68 2.9 ENE 17 26 9 14 1027.8 1027.8 0.0
27/04:30pm 15.3 11.3 8.3 63 3.5 E 19 24 10 13 1027.6 1027.6 0.0
27/04:00pm 16.4 12.7 8.1 58 4.2 ENE 17 24 9 13 1027.4 1027.4 0.0
27/03:30pm 17.2 14.3 9.6 61 4.0 ENE 15 22 8 12 1027.4 1027.4 0.0
27/03:00pm 17.7 14.4 9.6 59 4.2 E 17 24 9 13 1027.3 1027.3 0.0
27/02:30pm 18.1 14.9 8.4 53 5.0 ENE 15 24 8 13 1027.2 1027.2 0.0
27/02:00pm 18.4 15.0 7.5 49 5.5 NNE 15 20 8 11 1027.2 1027.2 0.0
27/01:30pm 18.2 14.9 8.2 52 5.1 NNE 15 26 8 14 1027.4 1027.4 0.0
27/01:00pm 17.9 14.6 8.2 53 4.9 NE 15 20 8 11 1027.5 1027.5 0.0
27/12:30pm 17.5 13.5 9.2 58 4.3 NE 20 26 11 14 1027.8 1027.8 0.0

Other Formats:

Comma delimited format used in spreadsheet applications
http://www.bom.gov.au/fwo/IDV60801/IDV60801.95890.axf

JavaScript Object Notation format (JSON) in row-major order
http://www.bom.gov.au/fwo/IDV60801/IDV60801.95890.json